Black Eagle — WDJJ — position and weather

sailwx.info

Track history (hours):
 
Tides and Currents Weather Stations Pressure Air Temp Water Temp Dewpoint Dewpoint Depression Visibility Wind Speed Wind Dir Waves Ship Positions

Black Eagle

Owner: Sealift Inc., Oyster Bay, NY. More information available from US FCC via Universal Licensing System and Coast Guard Vessel Documentation Center.

Last reported at 2017-Nov-17 18:44 UTC. Time now 2017-Nov-21 04:47 UTC.
Position N 35°60' E 014°58'.

Length 190 m; draft 9 m.

Type: Cargo ship. MMSI: 369542000.

Date/timePositionNaut miles runAvg speedWind from/ knotsBaromVisibWave heightAir tempDewpointWater temp
2017-Nov-17 18:44N 35°60' E 014°58'411.2
2017-Nov-17 18:21N 36°01' E 014°53'411.4
2017-Nov-17 18:00N 36°02' E 014°48'5 9.5
2017-Nov-17 17:30N 36°04' E 014°42'1 1.0
2017-Nov-17 16:56N 36°03' E 014°41'0 0.5
2017-Nov-17 16:30N 36°03' E 014°41'3 5.0
2017-Nov-17 16:00N 36°05' E 014°39'1 2.9
2017-Nov-17 15:30N 36°06' E 014°38'2 4.1
2017-Nov-17 15:00N 36°05' E 014°40'2 3.7
2017-Nov-17 14:29N 36°04' E 014°42'3 5.6
2017-Nov-17 13:59N 36°05' E 014°39'5 9.7
2017-Nov-17 13:30N 36°08' E 014°35'612.5
2017-Nov-17 13:00N 36°13' E 014°29'714.5
2017-Nov-17 12:30N 36°17' E 014°23'816.1
2017-Nov-17 12:00N 36°23' E 014°15'815.7
2017-Nov-17 11:30N 36°27' E 014°07'815.8
2017-Nov-17 11:00N 36°31' E 013°59'1516.1
2017-Nov-17 10:03N 36°41' E 013°44'716.1
2017-Nov-17 09:38N 36°43' E 013°36'216.0
2017-Nov-17 09:29N 36°44' E 013°33'  
2017-Nov-14 23:39N 36°01' W 005°05'317.7
2017-Nov-14 23:30N 36°00' W 005°08'917.3
2017-Nov-14 23:01N 35°59' W 005°18'816.3
2017-Nov-14 22:31N 35°57' W 005°28'9314.8
2017-Nov-14 16:11N 35°50' W 007°23'315.2
2017-Nov-14 15:59N 35°50' W 007°27'714.9
2017-Nov-14 15:31N 35°50' W 007°35'714.9
2017-Nov-14 15:01N 35°49' W 007°45'  
Track history (hours):
 
Tides and Currents Weather Stations Pressure Air Temp Water Temp Dewpoint Dewpoint Depression Visibility Wind Speed Wind Dir Waves Ship Positions

Black Eagle

Owner: Sealift Inc., Oyster Bay, NY. More information available from US FCC via Universal Licensing System and Coast Guard Vessel Documentation Center.

Last reported at 2017-Nov-17 18:44 UTC. Time now 2017-Nov-21 04:47 UTC.
Position N 35°60' E 014°58'.

Length 190 m; draft 9 m.

Type: Cargo ship. MMSI: 369542000.

Date/timePositionNaut miles runAvg speedWind from/ knotsBaromVisibWave heightAir tempDewpointWater temp
2017-Nov-17 18:44N 35°60' E 014°58'411.2
2017-Nov-17 18:21N 36°01' E 014°53'411.4
2017-Nov-17 18:00N 36°02' E 014°48'5 9.5
2017-Nov-17 17:30N 36°04' E 014°42'1 1.0
2017-Nov-17 16:56N 36°03' E 014°41'0 0.5
2017-Nov-17 16:30N 36°03' E 014°41'3 5.0
2017-Nov-17 16:00N 36°05' E 014°39'1 2.9
2017-Nov-17 15:30N 36°06' E 014°38'2 4.1
2017-Nov-17 15:00N 36°05' E 014°40'2 3.7
2017-Nov-17 14:29N 36°04' E 014°42'3 5.6
2017-Nov-17 13:59N 36°05' E 014°39'5 9.7
2017-Nov-17 13:30N 36°08' E 014°35'612.5
2017-Nov-17 13:00N 36°13' E 014°29'714.5
2017-Nov-17 12:30N 36°17' E 014°23'816.1
2017-Nov-17 12:00N 36°23' E 014°15'815.7
2017-Nov-17 11:30N 36°27' E 014°07'815.8
2017-Nov-17 11:00N 36°31' E 013°59'1516.1
2017-Nov-17 10:03N 36°41' E 013°44'716.1
2017-Nov-17 09:38N 36°43' E 013°36'216.0
2017-Nov-17 09:29N 36°44' E 013°33'  
2017-Nov-14 23:39N 36°01' W 005°05'317.7
2017-Nov-14 23:30N 36°00' W 005°08'917.3
2017-Nov-14 23:01N 35°59' W 005°18'816.3
2017-Nov-14 22:31N 35°57' W 005°28'9314.8
2017-Nov-14 16:11N 35°50' W 007°23'315.2
2017-Nov-14 15:59N 35°50' W 007°27'714.9
2017-Nov-14 15:31N 35°50' W 007°35'714.9
2017-Nov-14 15:01N 35°49' W 007°45'  

Dump ship's entire track history